createdAt,value
2022-11-24T00:01:06.231Z,100041.00
2022-11-24T00:03:33.425Z,100029.78
2022-11-24T00:06:08.122Z,100025.47
2022-11-24T00:08:36.216Z,100032.47
2022-11-24T00:11:04.549Z,100035.84
2022-11-24T00:13:32.659Z,100042.75
2022-11-24T00:16:14.391Z,100051.16
2022-11-24T00:18:42.730Z,100056.53
2022-11-24T00:21:10.107Z,100063.22
2022-11-24T00:23:37.781Z,100061.72
2022-11-24T00:26:04.856Z,100061.09
2022-11-24T00:28:33.051Z,100068.13
2022-11-24T00:31:00.358Z,100067.50
2022-11-24T00:33:27.524Z,100067.34
2022-11-24T00:35:55.713Z,100074.41
2022-11-24T00:38:23.157Z,100079.59
2022-11-24T00:40:50.576Z,100074.69
2022-11-24T00:43:17.956Z,100077.19
2022-11-24T00:45:45.197Z,100067.84
2022-11-24T00:48:12.297Z,100073.25
2022-11-24T00:50:39.431Z,100076.25
2022-11-24T00:53:06.500Z,100084.06
2022-11-24T00:55:33.633Z,100082.84
2022-11-24T00:58:00.821Z,100079.72
2022-11-24T01:00:27.929Z,100078.84
2022-11-24T01:02:55.077Z,100081.53
2022-11-24T01:05:22.265Z,100085.06
2022-11-24T01:07:49.376Z,100080.13
2022-11-24T01:10:16.680Z,100082.72
2022-11-24T01:12:43.789Z,100085.09
2022-11-24T01:15:10.854Z,100090.25
2022-11-24T01:17:37.999Z,100095.47
2022-11-24T01:20:05.336Z,100106.06
2022-11-24T01:22:32.966Z,100102.50
2022-11-24T01:25:00.183Z,100098.94
2022-11-24T01:27:27.208Z,100109.28
2022-11-24T01:29:54.304Z,100113.91
2022-11-24T01:32:21.334Z,100107.88
2022-11-24T01:34:49.108Z,100101.25
2022-11-24T01:37:16.192Z,100113.09
2022-11-24T01:39:43.215Z,100120.03
2022-11-24T01:42:10.279Z,100114.91
2022-11-24T01:44:37.649Z,100115.88
2022-11-24T01:47:16.890Z,100117.25
2022-11-24T01:49:51.320Z,100125.06
2022-11-24T01:52:33.854Z,100120.91
2022-11-24T01:55:06.780Z,100112.44
2022-11-24T01:57:42.084Z,100107.88
2022-11-24T02:00:12.224Z,100110.38
2022-11-24T02:02:44.332Z,100102.59
2022-11-24T02:05:39.060Z,100120.88
2022-11-24T02:08:14.829Z,100108.50
2022-11-24T02:10:44.049Z,100122.50
2022-11-24T02:13:12.114Z,100121.66
2022-11-24T02:15:39.420Z,100114.78
2022-11-24T02:18:07.045Z,100121.81
2022-11-24T02:20:34.334Z,100133.97
2022-11-24T02:23:42.307Z,100146.66
2022-11-24T02:26:12.253Z,100138.00
2022-11-24T02:28:40.213Z,100137.47
2022-11-24T02:31:07.507Z,100139.25
2022-11-24T02:33:36.548Z,100151.13
2022-11-24T02:36:03.988Z,100147.69
2022-11-24T02:38:35.799Z,100146.13
2022-11-24T02:41:07.641Z,100150.13
2022-11-24T02:43:42.756Z,100158.22
2022-11-24T02:46:10.894Z,100166.75
2022-11-24T02:48:38.982Z,100169.94
2022-11-24T02:51:06.328Z,100170.19
2022-11-24T02:53:33.751Z,100179.81
2022-11-24T02:56:01.112Z,100165.34
2022-11-24T02:58:28.345Z,100176.16
2022-11-24T03:00:57.190Z,100170.06
2022-11-24T03:03:25.260Z,100168.75
2022-11-24T03:05:52.796Z,100178.09
2022-11-24T03:08:20.312Z,100184.22
2022-11-24T03:10:47.569Z,100181.69
2022-11-24T03:13:15.212Z,100191.69
2022-11-24T03:15:42.496Z,100183.28
2022-11-24T03:18:09.898Z,100195.22
2022-11-24T03:20:37.389Z,100196.16
2022-11-24T03:23:04.602Z,100195.34
2022-11-24T03:25:31.952Z,100206.44
2022-11-24T03:27:59.359Z,100201.28
2022-11-24T03:30:27.674Z,100201.41
2022-11-24T03:32:55.012Z,100208.34
2022-11-24T03:35:23.210Z,100205.81
2022-11-24T03:37:50.566Z,100194.84
2022-11-24T03:40:18.157Z,100206.88
2022-11-24T03:42:45.401Z,100202.66
2022-11-24T03:45:37.950Z,100208.66
2022-11-24T03:48:00.134Z,100199.09
2022-11-24T03:50:27.563Z,100206.88
2022-11-24T03:52:54.863Z,100210.38
2022-11-24T03:55:22.184Z,100207.81
2022-11-24T03:57:49.447Z,100202.59
2022-11-24T04:00:17.310Z,100206.81
2022-11-24T04:02:44.664Z,100210.31
2022-11-24T04:05:11.994Z,100207.91
2022-11-24T04:07:39.268Z,100214.03
2022-11-24T04:10:07.348Z,100220.00
2022-11-24T04:12:46.741Z,100219.13
2022-11-24T04:15:16.637Z,100222.59
2022-11-24T04:17:45.110Z,100224.38
2022-11-24T04:20:13.173Z,100223.56
2022-11-24T04:22:40.640Z,100233.72
2022-11-24T04:25:09.323Z,100235.38
2022-11-24T04:27:37.662Z,100234.56
2022-11-24T04:30:06.744Z,100231.03
2022-11-24T04:32:33.982Z,100250.47
2022-11-24T04:35:01.098Z,100237.38
2022-11-24T04:37:28.264Z,100246.06
2022-11-24T04:39:55.448Z,100241.06
2022-11-24T04:42:28.127Z,100241.19
2022-11-24T04:44:55.559Z,100255.84
2022-11-24T04:47:24.496Z,100246.31
2022-11-24T04:50:17.210Z,100243.72
2022-11-24T04:52:44.712Z,100249.69
2022-11-24T04:55:12.347Z,100248.88
2022-11-24T04:57:39.713Z,100260.75
2022-11-24T05:00:07.869Z,100263.22
2022-11-24T05:02:35.227Z,100272.78
2022-11-24T05:05:02.732Z,100278.91
2022-11-24T05:07:30.556Z,100275.53
2022-11-24T05:10:16.467Z,100268.75
2022-11-24T05:12:48.421Z,100277.19
2022-11-24T05:15:18.503Z,100278.09
2022-11-24T05:17:45.744Z,100288.63
2022-11-24T05:20:13.044Z,100292.88
2022-11-24T05:22:40.312Z,100299.75
2022-11-24T05:25:07.911Z,100299.66
2022-11-24T05:27:35.082Z,100312.53
2022-11-24T05:30:02.432Z,100306.47
2022-11-24T05:32:29.648Z,100309.09
2022-11-24T05:34:58.173Z,100326.19
2022-11-24T05:37:25.814Z,100332.19
2022-11-24T05:39:54.547Z,100337.44
2022-11-24T05:42:46.231Z,100340.84
2022-11-24T05:45:19.875Z,100352.69
2022-11-24T05:47:48.534Z,100367.41
2022-11-24T05:50:18.236Z,100363.13
2022-11-24T05:52:46.020Z,100380.25
2022-11-24T05:55:15.023Z,100399.09
2022-11-24T05:57:42.828Z,100405.06
2022-11-24T06:00:10.351Z,100393.94
2022-11-24T06:02:40.951Z,100403.25
2022-11-24T06:05:08.499Z,100412.75
2022-11-24T06:07:35.886Z,100417.03
2022-11-24T06:10:03.876Z,100411.13
2022-11-24T06:15:17.800Z,100429.78
2022-11-24T06:17:45.315Z,100427.16
2022-11-24T06:20:12.497Z,100431.53
2022-11-24T06:22:39.738Z,100426.53
2022-11-24T06:25:07.409Z,100436.63
2022-11-24T06:27:34.824Z,100440.91
2022-11-24T06:30:02.131Z,100446.91
2022-11-24T06:32:29.367Z,100450.31
2022-11-24T06:34:56.708Z,100448.63
2022-11-24T06:37:23.998Z,100454.56
2022-11-24T06:39:51.455Z,100453.72
2022-11-24T06:42:19.036Z,100460.53
2022-11-24T06:44:47.390Z,100457.91
2022-11-24T06:47:15.435Z,100451.97
2022-11-24T06:49:42.607Z,100455.34
2022-11-24T06:52:09.838Z,100444.16
2022-11-24T06:54:37.419Z,100443.06
2022-11-24T06:57:04.771Z,100449.00
2022-11-24T06:59:31.858Z,100455.09
2022-11-24T07:01:58.833Z,100461.03
2022-11-24T07:04:25.974Z,100468.75
2022-11-24T07:06:53.077Z,100471.09
2022-11-24T07:09:20.216Z,100465.00
2022-11-24T07:11:47.307Z,100475.22
2022-11-24T07:14:14.445Z,100478.53
2022-11-24T07:16:42.053Z,100473.31
2022-11-24T07:19:09.982Z,100485.28
2022-11-24T07:21:37.233Z,100490.25
2022-11-24T07:24:04.932Z,100484.03
2022-11-24T07:26:37.118Z,100485.38
2022-11-24T07:29:05.426Z,100485.78
2022-11-24T07:31:32.744Z,100495.59
2022-11-24T07:34:00.128Z,100492.81
2022-11-24T07:36:27.605Z,100501.88
2022-11-24T07:38:54.970Z,100505.31
2022-11-24T07:41:22.295Z,100505.16
2022-11-24T07:43:50.530Z,100513.56
2022-11-24T07:46:19.404Z,100517.13
2022-11-24T07:48:48.114Z,100509.69
2022-11-24T07:51:16.057Z,100507.88
2022-11-24T07:53:43.743Z,100510.47
2022-11-24T07:56:11.182Z,100520.31
2022-11-24T07:58:38.579Z,100516.81
2022-11-24T08:01:14.415Z,100526.75
2022-11-24T08:03:42.899Z,100540.56
2022-11-24T08:06:32.247Z,100544.38
2022-11-24T08:08:59.071Z,100542.88
2022-11-24T08:11:27.168Z,100548.72
2022-11-24T08:13:54.426Z,100548.13
2022-11-24T08:16:21.840Z,100551.00
2022-11-24T08:18:51.724Z,100544.38
2022-11-24T08:21:19.946Z,100548.19
2022-11-24T08:23:47.277Z,100552.56
2022-11-24T08:26:19.918Z,100565.22
2022-11-24T08:28:47.440Z,100558.66
2022-11-24T08:31:21.010Z,100569.69
2022-11-24T08:33:48.483Z,100575.50
2022-11-24T08:36:17.918Z,100557.56
2022-11-24T08:38:46.540Z,100556.31
2022-11-24T08:41:15.928Z,100545.34
2022-11-24T08:43:43.438Z,100552.63
2022-11-24T08:46:17.274Z,100563.88
2022-11-24T08:48:51.718Z,100559.34
2022-11-24T08:51:21.604Z,100563.56
2022-11-24T08:53:49.145Z,100566.44
2022-11-24T08:56:16.467Z,100575.75
2022-11-24T08:58:44.001Z,100585.41
2022-11-24T09:01:14.407Z,100584.00
2022-11-24T09:03:49.983Z,100563.50
2022-11-24T09:06:22.883Z,100572.31
2022-11-24T09:08:51.904Z,100576.13
2022-11-24T09:11:19.510Z,100584.03
2022-11-24T09:13:47.081Z,100597.19
2022-11-24T09:16:20.394Z,100605.19
2022-11-24T09:18:48.500Z,100600.16
2022-11-24T09:21:20.841Z,100607.84
2022-11-24T09:23:50.640Z,100599.78
2022-11-24T09:26:24.459Z,100600.81
2022-11-24T09:28:54.584Z,100595.56
2022-11-24T09:31:30.922Z,100600.53
2022-11-24T09:33:59.428Z,100578.13
2022-11-24T09:36:27.375Z,100585.22
2022-11-24T09:38:55.233Z,100588.44
2022-11-24T09:41:40.754Z,100593.25
2022-11-24T09:44:24.948Z,100604.28
2022-11-24T09:47:13.938Z,100587.81
2022-11-24T09:49:58.236Z,100585.28
2022-11-24T09:52:43.033Z,100579.69
2022-11-24T09:55:44.016Z,100570.81
2022-11-24T09:58:18.607Z,100566.88
2022-11-24T10:00:48.716Z,100565.75
2022-11-24T10:03:31.835Z,100566.25
2022-11-24T10:06:04.130Z,100567.97
2022-11-24T10:08:38.688Z,100563.75
2022-11-24T10:11:13.678Z,100566.88
2022-11-24T10:14:15.480Z,100583.03
2022-11-24T10:17:17.787Z,100581.19
2022-11-24T10:19:56.118Z,100585.97
2022-11-24T10:22:35.510Z,100590.09
2022-11-24T10:25:19.200Z,100582.13
2022-11-24T10:27:56.009Z,100589.34
2022-11-24T10:30:26.837Z,100573.38
2022-11-24T10:33:04.907Z,100583.66
2022-11-24T10:35:45.899Z,100586.53
2022-11-24T10:38:50.446Z,100585.03
2022-11-24T10:41:39.564Z,100581.31
2022-11-24T10:44:13.036Z,100585.03
2022-11-24T10:46:40.584Z,100592.78
2022-11-24T10:49:17.709Z,100589.78
2022-11-24T10:52:06.043Z,100592.06
2022-11-24T10:54:35.621Z,100589.25
2022-11-24T10:57:03.359Z,100591.75
2022-11-24T10:59:37.491Z,100599.72
2022-11-24T11:02:30.245Z,100604.72
2022-11-24T11:04:58.148Z,100600.75
2022-11-24T11:07:26.562Z,100604.31
2022-11-24T11:10:20.747Z,100590.69
2022-11-24T11:12:50.497Z,100585.44
2022-11-24T11:15:31.103Z,100583.88
2022-11-24T11:18:00.210Z,100591.56
2022-11-24T11:20:31.299Z,100590.50
2022-11-24T11:23:02.128Z,100599.16
2022-11-24T11:25:34.230Z,100591.34
2022-11-24T11:28:30.926Z,100578.28
2022-11-24T11:31:20.072Z,100573.78
2022-11-24T11:34:04.580Z,100577.00
2022-11-24T11:36:35.548Z,100583.22
2022-11-24T11:39:03.892Z,100587.03
2022-11-24T11:41:40.277Z,100603.38
2022-11-24T11:44:22.854Z,100589.53
2022-11-24T11:46:50.427Z,100589.53
2022-11-24T11:49:18.285Z,100594.44
2022-11-24T11:52:09.373Z,100590.78
2022-11-24T11:55:01.510Z,100584.19
2022-11-24T11:58:06.562Z,100587.34
2022-11-24T12:00:39.648Z,100587.53
2022-11-24T12:03:25.501Z,100582.50
2022-11-24T12:06:21.443Z,100579.09
2022-11-24T12:09:19.813Z,100584.72
2022-11-24T12:12:23.656Z,100587.00
2022-11-24T12:15:16.022Z,100583.34
2022-11-24T12:18:40.337Z,100583.34
2022-11-24T12:21:26.204Z,100581.34
2022-11-24T12:24:18.109Z,100581.34
2022-11-24T12:27:05.540Z,100583.00
2022-11-24T12:29:54.614Z,100587.94
2022-11-24T12:32:35.247Z,100595.28
2022-11-24T12:35:15.279Z,100594.84
2022-11-24T12:37:55.282Z,100590.91
2022-11-24T12:40:55.258Z,100592.34
2022-11-24T12:43:36.957Z,100584.19
2022-11-24T12:46:25.325Z,100586.56
2022-11-24T12:49:04.999Z,100592.75
2022-11-24T12:51:35.851Z,100601.66
2022-11-24T12:54:09.264Z,100587.41
2022-11-24T12:56:50.907Z,100583.06
2022-11-24T12:59:25.223Z,100598.34
2022-11-24T13:01:59.717Z,100603.88
2022-11-24T13:04:39.516Z,100604.88
2022-11-24T13:07:17.988Z,100602.59
2022-11-24T13:10:34.932Z,100602.59
2022-11-24T13:13:12.513Z,100612.97
2022-11-24T13:16:34.683Z,100609.72
2022-11-24T13:19:00.468Z,100608.72
2022-11-24T13:21:27.916Z,100614.91
2022-11-24T13:23:57.988Z,100615.69
2022-11-24T13:26:48.302Z,100615.09
2022-11-24T13:29:28.031Z,100606.69
2022-11-24T13:32:01.919Z,100608.16
2022-11-24T13:34:38.732Z,100612.31
2022-11-24T13:37:29.080Z,100603.72
2022-11-24T13:40:12.021Z,100603.56
2022-11-24T13:42:54.814Z,100602.97
2022-11-24T13:45:52.514Z,100602.75
2022-11-24T13:48:20.171Z,100620.19
2022-11-24T13:51:14.352Z,100617.06
2022-11-24T13:53:48.941Z,100618.63
2022-11-24T13:56:17.301Z,100620.88
2022-11-24T13:58:57.755Z,100625.38
2022-11-24T14:01:28.380Z,100620.75
2022-11-24T14:04:31.887Z,100615.41
2022-11-24T14:07:12.792Z,100616.03
2022-11-24T14:09:43.284Z,100619.91
2022-11-24T14:12:16.875Z,100613.72
2022-11-24T14:14:46.406Z,100612.00
2022-11-24T14:17:14.717Z,100605.53
2022-11-24T14:19:47.408Z,100610.44
2022-11-24T14:22:31.242Z,100599.06
2022-11-24T14:25:00.587Z,100600.34
2022-11-24T14:27:31.539Z,100600.78
2022-11-24T14:30:02.074Z,100596.88
2022-11-24T14:32:31.285Z,100600.56
2022-11-24T14:34:58.823Z,100604.94
2022-11-24T14:37:26.201Z,100600.13
2022-11-24T14:39:53.461Z,100594.81
2022-11-24T14:42:27.261Z,100601.97
2022-11-24T14:45:03.787Z,100610.47
2022-11-24T14:47:37.031Z,100615.91
2022-11-24T14:50:11.551Z,100615.19
2022-11-24T14:53:04.576Z,100619.06
2022-11-24T14:55:35.921Z,100618.09
2022-11-24T14:58:20.652Z,100621.09
2022-11-24T15:01:09.344Z,100622.50
2022-11-24T15:03:36.657Z,100631.69
2022-11-24T15:06:04.249Z,100628.97
2022-11-24T15:08:42.145Z,100618.91
2022-11-24T15:11:09.530Z,100645.41
2022-11-24T15:13:40.427Z,100640.34
2022-11-24T15:16:15.911Z,100642.59
2022-11-24T15:18:58.323Z,100636.03
2022-11-24T15:21:36.943Z,100650.22
2022-11-24T15:24:06.154Z,100657.44
2022-11-24T15:26:40.030Z,100657.50
2022-11-24T15:29:12.594Z,100648.41
2022-11-24T15:31:53.017Z,100659.34
2022-11-24T15:34:46.703Z,100661.22
2022-11-24T15:37:14.626Z,100668.44
2022-11-24T15:39:42.667Z,100654.22
2022-11-24T15:42:22.433Z,100663.09
2022-11-24T15:45:12.084Z,100675.16
2022-11-24T15:47:43.130Z,100676.53
2022-11-24T15:50:20.832Z,100675.84
2022-11-24T15:52:49.133Z,100669.44
2022-11-24T15:56:35.782Z,100680.56
2022-11-24T15:59:06.702Z,100674.91
2022-11-24T16:01:40.504Z,100661.53
2022-11-24T16:04:09.331Z,100674.31
2022-11-24T16:06:43.857Z,100686.81
2022-11-24T16:12:03.904Z,100681.84
2022-11-24T16:14:41.793Z,100696.38
2022-11-24T16:17:09.510Z,100690.53
2022-11-24T16:19:41.819Z,100693.34
2022-11-24T16:22:18.505Z,100691.97
2022-11-24T16:24:46.073Z,100705.09
2022-11-24T16:27:19.141Z,100690.41
2022-11-24T16:29:46.643Z,100702.16
2022-11-24T16:32:17.277Z,100702.22
2022-11-24T16:34:47.547Z,100681.78
2022-11-24T16:37:15.330Z,100682.00
2022-11-24T16:39:50.019Z,100683.72
2022-11-24T16:42:18.204Z,100690.47
2022-11-24T16:44:48.586Z,100688.75
2022-11-24T16:47:16.785Z,100676.94
2022-11-24T16:49:46.383Z,100688.09
2022-11-24T16:52:15.577Z,100701.09
2022-11-24T16:54:45.879Z,100692.63
2022-11-24T16:57:16.447Z,100691.00
2022-11-24T16:59:45.902Z,100697.88
2022-11-24T17:02:13.479Z,100704.09
2022-11-24T17:04:41.043Z,100718.69
2022-11-24T17:07:08.735Z,100724.03
2022-11-24T17:09:40.546Z,100725.19
2022-11-24T17:12:08.324Z,100727.03
2022-11-24T17:14:36.284Z,100729.56
2022-11-24T17:17:04.014Z,100750.31
2022-11-24T17:19:31.927Z,100757.19
2022-11-24T17:21:59.296Z,100757.97
2022-11-24T17:24:28.861Z,100758.28
2022-11-24T17:26:56.240Z,100762.47
2022-11-24T17:29:23.571Z,100769.97
2022-11-24T17:31:50.953Z,100762.56
2022-11-24T17:34:18.349Z,100768.56
2022-11-24T17:36:46.148Z,100775.44
2022-11-24T17:39:13.651Z,100778.13
2022-11-24T17:41:41.286Z,100784.38
2022-11-24T17:44:10.728Z,100775.78
2022-11-24T17:46:39.108Z,100774.78
2022-11-24T17:49:13.156Z,100787.50
2022-11-24T17:51:40.579Z,100785.09
2022-11-24T17:54:44.916Z,100789.25
2022-11-24T17:56:57.671Z,100785.19
2022-11-24T17:59:26.048Z,100782.56
2022-11-24T18:02:01.137Z,100780.03
2022-11-24T18:04:34.939Z,100781.75
2022-11-24T18:09:46.189Z,100791.38
2022-11-24T18:12:13.635Z,100794.03
2022-11-24T18:14:41.205Z,100790.59
2022-11-24T18:17:12.144Z,100801.97
2022-11-24T18:19:42.137Z,100799.59
2022-11-24T18:22:09.602Z,100804.78
2022-11-24T18:24:37.045Z,100813.47
2022-11-24T18:27:04.611Z,100812.66
2022-11-24T18:29:39.372Z,100808.59
2022-11-24T18:32:15.158Z,100809.69
2022-11-24T18:34:45.247Z,100813.84
2022-11-24T18:37:14.771Z,100810.63
2022-11-24T18:39:42.992Z,100817.50
2022-11-24T18:42:10.789Z,100810.50
2022-11-24T18:44:51.114Z,100815.47
2022-11-24T18:47:21.270Z,100812.34
2022-11-24T18:50:19.343Z,100831.13
2022-11-24T18:52:46.817Z,100834.63
2022-11-24T18:55:14.342Z,100833.06
2022-11-24T18:57:43.043Z,100852.09
2022-11-24T19:00:16.680Z,100843.50
2022-11-24T19:02:44.395Z,100852.19
2022-11-24T19:05:11.913Z,100846.25
2022-11-24T19:07:39.440Z,100847.97
2022-11-24T19:10:07.463Z,100843.56
2022-11-24T19:12:35.147Z,100845.44
2022-11-24T19:15:02.592Z,100862.84
2022-11-24T19:17:30.105Z,100869.69
2022-11-24T19:19:57.413Z,100864.41
2022-11-24T19:22:24.853Z,100864.38
2022-11-24T19:24:52.154Z,100867.16
2022-11-24T19:27:21.856Z,100868.00
2022-11-24T19:29:49.767Z,100868.00
2022-11-24T19:32:19.434Z,100856.78
2022-11-24T19:34:49.248Z,100856.13
2022-11-24T19:37:16.742Z,100868.88
2022-11-24T19:39:46.680Z,100867.94
2022-11-24T19:42:14.113Z,100854.34
2022-11-24T19:44:41.335Z,100862.84
2022-11-24T19:47:08.700Z,100863.03
2022-11-24T19:49:36.045Z,100863.09
2022-11-24T19:52:03.565Z,100869.84
2022-11-24T19:54:31.335Z,100870.84
2022-11-24T19:56:58.688Z,100875.41
2022-11-24T19:59:26.546Z,100878.91
2022-11-24T20:01:58.694Z,100884.88
2022-11-24T20:04:26.124Z,100885.66
2022-11-24T20:06:54.340Z,100878.84
2022-11-24T20:09:24.836Z,100878.06
2022-11-24T20:11:52.182Z,100878.91
2022-11-24T20:14:19.979Z,100888.31
2022-11-24T20:16:48.105Z,100895.94
2022-11-24T20:19:17.051Z,100889.03
2022-11-24T20:21:47.890Z,100887.38
2022-11-24T20:24:20.665Z,100902.97
2022-11-24T20:26:51.327Z,100899.69
2022-11-24T20:29:20.136Z,100916.69
2022-11-24T20:31:56.064Z,100908.34
2022-11-24T20:34:28.854Z,100914.25
2022-11-24T20:36:56.354Z,100906.53
2022-11-24T20:39:26.600Z,100914.94
2022-11-24T20:41:55.631Z,100897.88
2022-11-24T20:44:26.616Z,100912.97
2022-11-24T20:46:56.758Z,100896.53
2022-11-24T20:49:26.858Z,100895.75
2022-11-24T20:51:54.586Z,100896.72
2022-11-24T20:54:23.585Z,100898.50
2022-11-24T20:56:51.295Z,100889.09
2022-11-24T20:59:21.688Z,100877.16
2022-11-24T21:01:50.979Z,100901.09
2022-11-24T21:04:22.619Z,100896.81
2022-11-24T21:06:50.577Z,100905.44
2022-11-24T21:09:18.611Z,100898.66
2022-11-24T21:11:46.586Z,100908.00
2022-11-24T21:14:14.506Z,100915.72
2022-11-24T21:16:43.214Z,100913.09
2022-11-24T21:19:15.133Z,100925.28
2022-11-24T21:21:43.228Z,100929.50
2022-11-24T21:24:15.550Z,100926.69
2022-11-24T21:26:47.392Z,100928.47
2022-11-24T21:29:22.237Z,100933.63
2022-11-24T21:31:49.786Z,100929.25
2022-11-24T21:34:19.164Z,100934.53
2022-11-24T21:36:47.220Z,100940.44
2022-11-24T21:39:15.414Z,100936.94
2022-11-24T21:41:43.305Z,100937.75
2022-11-24T21:44:12.844Z,100945.59
2022-11-24T21:46:45.691Z,100952.44
2022-11-24T21:49:16.883Z,100945.53
2022-11-24T21:51:44.073Z,100948.13
2022-11-24T21:54:11.487Z,100955.06
2022-11-24T21:56:38.737Z,100957.72
2022-11-24T21:59:06.040Z,100947.34
2022-11-24T22:01:33.375Z,100950.00
2022-11-24T22:04:00.764Z,100962.09
2022-11-24T22:06:28.034Z,100954.34
2022-11-24T22:08:55.577Z,100943.09
2022-11-24T22:11:25.110Z,100939.59
2022-11-24T22:13:52.973Z,100947.44
2022-11-24T22:16:23.003Z,100957.84
2022-11-24T22:18:51.071Z,100954.41
2022-11-24T22:21:23.844Z,100952.63
2022-11-24T22:23:55.036Z,100956.09
2022-11-24T22:26:23.820Z,100963.81
2022-11-24T22:28:51.761Z,100950.06
2022-11-24T22:31:21.787Z,100949.13
2022-11-24T22:33:50.352Z,100951.75
2022-11-24T22:36:20.754Z,100953.44
2022-11-24T22:38:53.335Z,100949.13
2022-11-24T22:41:21.040Z,100956.06
2022-11-24T22:43:49.046Z,100944.97
2022-11-24T22:46:22.073Z,100940.66
2022-11-24T22:48:52.875Z,100947.69
2022-11-24T22:51:23.794Z,100954.63
2022-11-24T22:53:53.318Z,100949.47
2022-11-24T22:56:21.431Z,100960.59
2022-11-24T22:58:49.214Z,100964.91
2022-11-24T23:01:19.599Z,100957.13
2022-11-24T23:03:47.145Z,100963.16
2022-11-24T23:06:16.807Z,100956.28
2022-11-24T23:08:44.386Z,100949.38
2022-11-24T23:11:17.747Z,100942.53
2022-11-24T23:13:45.164Z,100946.75
2022-11-24T23:16:17.957Z,100950.13
2022-11-24T23:18:52.457Z,100947.69
2022-11-24T23:21:21.144Z,100942.53
2022-11-24T23:23:49.461Z,100933.84
2022-11-24T23:26:25.271Z,100930.50
2022-11-24T23:28:52.971Z,100941.69
2022-11-24T23:31:24.074Z,100939.19
2022-11-24T23:33:51.514Z,100938.25
2022-11-24T23:36:20.513Z,100950.31
2022-11-24T23:38:48.674Z,100942.69
2022-11-24T23:41:18.998Z,100943.50
2022-11-24T23:43:46.751Z,100927.13
2022-11-24T23:46:22.677Z,100925.44
2022-11-24T23:48:52.107Z,100917.72
2022-11-24T23:51:22.067Z,100925.47
2022-11-24T23:53:50.148Z,100933.38
2022-11-24T23:56:23.658Z,100935.97
2022-11-24T23:58:51.568Z,100929.16
